Time;durP1;ratioP1;P1;durP2;ratioP2;P2;SDS_P1;SDS_P2;PMS_P1;PMS_P2;Temp;Humidity;BMP_temperature;BMP_pressure;BME280_temperature;BME280_humidity;BME280_pressure;Samples;Min_cycle;Max_cycle;Signal;HPM_P1;HPM_P2
2023/08/31 00:02:11;;;;;;;81.80;78.00;;;;;;;21.20;45.66;100745.22;5034028;28;20035;-75
2023/08/31 00:04:36;;;;;;;77.93;74.32;;;;;;;21.18;45.71;100745.53;5044206;28;20112;-74
2023/08/31 00:07:02;;;;;;;79.13;75.43;;;;;;;21.16;45.45;100745.03;5048939;28;20065;-75
2023/08/31 00:09:29;;;;;;;78.03;74.50;;;;;;;21.15;45.77;100746.97;5045822;28;20495;-73
2023/08/31 00:11:56;;;;;;;79.13;75.53;;;;;;;21.13;46.08;100746.47;5056623;28;20041;-74
2023/08/31 00:14:22;;;;;;;79.05;75.40;;;;;;;21.11;45.62;100740.47;5045201;28;20469;-72
2023/08/31 00:16:47;;;;;;;77.95;74.28;;;;;;;21.11;45.59;100740.47;5048192;28;20397;-73
2023/08/31 00:19:14;;;;;;;78.75;75.10;;;;;;;21.09;45.62;100737.25;5038321;28;20450;-74
2023/08/31 00:21:40;;;;;;;78.82;75.22;;;;;;;21.09;45.46;100742.75;5049844;28;20044;-73
2023/08/31 00:24:05;;;;;;;78.75;75.05;;;;;;;21.07;45.81;100735.94;5053685;28;20043;-75
2023/08/31 00:26:31;;;;;;;76.47;72.88;;;;;;;21.05;45.52;100739.00;5044176;28;20037;-74
2023/08/31 00:28:58;;;;;;;78.30;74.70;;;;;;;21.03;45.82;100741.22;5047816;28;20071;-74
2023/08/31 00:31:23;;;;;;;80.13;76.32;;;;;;;21.02;45.43;100739.63;5045973;28;20037;-74
2023/08/31 00:33:49;;;;;;;78.00;74.45;;;;;;;21.00;45.99;100736.38;5059413;28;20037;-74
2023/08/31 00:36:15;;;;;;;79.53;75.95;;;;;;;21.00;45.80;100735.56;5053760;28;20114;-74
2023/08/31 00:38:40;;;;;;;78.65;75.07;;;;;;;20.98;45.39;100738.63;5046249;28;20128;-75
2023/08/31 00:41:06;;;;;;;74.97;71.38;;;;;;;20.96;45.96;100738.94;5039770;28;20057;-74
2023/08/31 00:43:32;;;;;;;77.35;73.85;;;;;;;20.95;45.62;100742.00;5054189;28;20043;-74
2023/08/31 00:45:58;;;;;;;75.18;71.72;;;;;;;20.94;45.90;100740.34;5042372;28;20029;-73
2023/08/31 00:48:24;;;;;;;76.65;73.05;;;;;;;20.93;45.71;100747.78;5047157;28;20036;-74
2023/08/31 00:50:50;;;;;;;77.95;74.35;;;;;;;20.91;45.41;100743.72;5048409;28;20037;-74
2023/08/31 00:53:17;;;;;;;78.70;75.03;;;;;;;20.89;45.59;100740.47;5044895;28;20098;-75
2023/08/31 00:55:45;;;;;;;79.43;75.82;;;;;;;20.87;45.55;100732.56;5043690;28;20105;-73
2023/08/31 00:58:11;;;;;;;76.93;73.32;;;;;;;20.86;45.40;100743.84;5055036;28;20033;-74
2023/08/31 01:00:48;;;;;;;77.75;74.07;;;;;;;20.85;45.31;100734.81;5041965;28;20068;-72
2023/08/31 01:03:35;;;;;;;75.03;71.63;;;;;;;20.81;45.57;100736.56;5048687;28;20033;-77
2023/08/31 01:06:18;;;;;;;74.80;71.43;;;;;;;20.80;45.88;100739.63;5036443;28;20095;-73
2023/08/31 01:08:53;;;;;;;75.00;71.60;;;;;;;20.78;45.42;100741.88;5033667;28;20480;-73
2023/08/31 01:11:34;;;;;;;74.85;71.40;;;;;;;20.75;45.36;100740.56;5046305;28;20052;-73
2023/08/31 01:14:11;;;;;;;74.75;71.25;;;;;;;20.74;46.00;100737.00;5039076;28;20024;-73
2023/08/31 01:16:40;;;;;;;77.85;74.18;;;;;;;20.72;45.53;100744.72;5050416;28;20444;-73
2023/08/31 01:19:22;;;;;;;75.75;72.25;;;;;;;20.71;45.80;100745.88;5044681;28;20037;-73
2023/08/31 01:21:51;;;;;;;76.18;72.47;;;;;;;20.68;45.45;100730.00;5044377;28;20029;-73
2023/08/31 01:24:17;;;;;;;75.43;71.95;;;;;;;20.67;45.98;100744.06;5039118;28;20040;-74
2023/08/31 01:26:42;;;;;;;75.32;71.82;;;;;;;20.65;46.00;100736.13;5057468;28;20039;-73
2023/08/31 01:29:08;;;;;;;77.60;73.85;;;;;;;20.65;45.80;100740.81;5044328;28;20073;-73
2023/08/31 01:31:41;;;;;;;76.50;73.00;;;;;;;20.62;45.80;100739.50;5049134;28;20093;-73
2023/08/31 01:34:08;;;;;;;74.40;71.00;;;;;;;20.61;46.06;100742.53;5035660;28;20107;-75
2023/08/31 01:36:37;;;;;;;76.30;72.80;;;;;;;20.60;45.43;100747.22;5052678;28;20436;-73
2023/08/31 01:39:26;;;;;;;74.72;71.22;;;;;;;20.60;45.59;100746.41;5038033;28;20049;-74
2023/08/31 01:41:58;;;;;;;73.18;69.88;;;;;;;20.57;45.46;100742.34;5047119;28;20099;-73
2023/08/31 01:44:25;;;;;;;74.80;71.40;;;;;;;20.56;45.96;100746.19;5046010;28;20033;-73
2023/08/31 01:46:54;;;;;;;73.38;69.88;;;;;;;20.54;45.87;100753.94;5047480;28;20041;-75
2023/08/31 01:49:19;;;;;;;;;;;;;;;20.47;45.96;100748.84;5039963;28;20040;-75
2023/08/31 01:51:45;;;;;;;72.15;68.85;;;;;;;20.47;45.52;100756.28;5052045;28;19920;-73
2023/08/31 01:54:10;;;;;;;72.63;69.22;;;;;;;20.46;45.89;100754.63;5049412;28;20037;-75
2023/08/31 01:56:36;;;;;;;74.85;71.35;;;;;;;20.45;45.66;100756.56;5061995;28;20033;-73
2023/08/31 01:59:01;;;;;;;72.80;69.40;;;;;;;20.43;45.79;100756.06;5053519;28;20062;-73
2023/08/31 02:01:26;;;;;;;75.95;72.40;;;;;;;20.43;45.46;100755.25;5046451;28;20033;-75
2023/08/31 02:03:52;;;;;;;74.25;70.85;;;;;;;20.41;46.02;100752.84;5025142;28;20079;-75
2023/08/31 02:06:17;;;;;;;74.32;70.90;;;;;;;20.41;45.47;100750.09;5035381;28;20076;-73
2023/08/31 02:08:44;;;;;;;72.85;69.47;;;;;;;20.38;45.54;100747.94;5033908;28;20115;-74
2023/08/31 02:11:09;;;;;;;72.13;68.82;;;;;;;20.37;45.82;100753.75;5042127;28;20394;-74
2023/08/31 02:13:35;;;;;;;73.65;70.25;;;;;;;20.35;45.96;100753.25;5041934;28;20474;-74
2023/08/31 02:16:00;;;;;;;71.50;68.25;;;;;;;20.34;45.70;100752.44;5052574;28;20123;-73
2023/08/31 02:18:25;;;;;;;72.07;68.82;;;;;;;20.34;45.64;100748.91;5052719;28;20486;-74
2023/08/31 02:20:54;;;;;;;73.07;69.68;;;;;;;20.34;45.70;100754.38;5042563;28;20071;-73
2023/08/31 02:23:19;;;;;;;71.88;68.40;;;;;;;20.30;45.71;100748.69;5038454;28;20040;-73
2023/08/31 02:25:44;;;;;;;70.05;66.75;;;;;;;20.31;45.99;100755.81;5045514;28;20390;-73
2023/08/31 02:28:10;;;;;;;73.95;70.57;;;;;;;20.29;46.09;100756.09;5041651;28;20049;-74
2023/08/31 02:30:35;;;;;;;74.68;71.13;;;;;;;20.27;45.53;100754.78;5041796;28;20141;-75
2023/08/31 02:33:01;;;;;;;72.65;69.35;;;;;;;20.25;45.95;100755.09;5045457;28;20107;-74
2023/08/31 02:35:26;;;;;;;73.82;70.43;;;;;;;20.24;46.00;100748.00;5057775;28;20369;-73
2023/08/31 02:37:51;;;;;;;72.47;69.15;;;;;;;20.22;45.59;100747.47;5054598;28;20084;-74
2023/08/31 02:40:17;;;;;;;72.20;68.80;;;;;;;20.21;45.93;100743.13;5049222;28;20046;-74
2023/08/31 02:42:42;;;;;;;73.88;70.20;;;;;;;20.20;45.47;100752.47;5044079;28;20033;-75
2023/08/31 02:45:08;;;;;;;72.00;68.60;;;;;;;20.19;45.67;100761.00;5051880;28;20441;-75
2023/08/31 02:47:33;;;;;;;73.07;69.65;;;;;;;20.19;46.00;100761.00;5051869;28;20036;-74
2023/08/31 02:49:59;;;;;;;69.63;66.43;;;;;;;20.17;45.68;100755.00;5048872;28;20521;-74
2023/08/31 02:52:25;;;;;;;71.80;68.40;;;;;;;20.14;45.88;100745.47;5047313;28;20111;-76
2023/08/31 02:54:50;;;;;;;70.70;67.40;;;;;;;20.13;45.83;100746.56;5044450;28;20036;-74
2023/08/31 02:57:19;;;;;;;71.50;68.20;;;;;;;20.13;45.89;100749.31;5049003;28;20045;-75
2023/08/31 02:59:46;;;;;;;72.55;69.15;;;;;;;20.11;45.47;100748.84;5056191;28;20078;-74
2023/08/31 03:02:12;;;;;;;71.50;68.20;;;;;;;20.09;45.74;100749.13;5050434;28;20466;-74
2023/08/31 03:04:37;;;;;;;74.85;71.35;;;;;;;20.09;45.81;100757.34;5050553;28;20043;-74
2023/08/31 03:07:04;;;;;;;72.88;69.47;;;;;;;20.07;45.71;100745.06;5046976;28;20129;-73
2023/08/31 03:09:29;;;;;;;72.95;69.35;;;;;;;20.06;46.03;100751.69;5056600;28;20037;-73
2023/08/31 03:11:55;;;;;;;72.50;69.10;;;;;;;20.05;45.44;100747.28;5038419;28;20049;-73
2023/08/31 03:14:20;;;;;;;71.63;68.32;;;;;;;20.04;45.83;100749.25;5052409;28;20531;-73
2023/08/31 03:16:46;;;;;;;72.53;69.13;;;;;;;20.04;45.51;100753.91;5041433;28;20033;-74
2023/08/31 03:19:11;;;;;;;71.38;68.07;;;;;;;20.02;45.76;100756.94;5042919;28;20037;-75
2023/08/31 03:21:36;;;;;;;72.65;69.05;;;;;;;20.00;46.08;100755.63;5055426;28;20044;-74
2023/08/31 03:24:02;;;;;;;71.05;67.65;;;;;;;19.99;45.80;100754.81;5051111;28;20029;-72
2023/08/31 03:26:27;;;;;;;69.88;66.57;;;;;;;19.98;45.94;100755.13;5047492;28;20484;-73
2023/08/31 03:28:53;;;;;;;71.70;68.38;;;;;;;19.96;45.97;100755.44;5041892;28;20400;-73
2023/08/31 03:31:18;;;;;;;71.50;67.95;;;;;;;19.94;45.61;100749.44;5041004;28;20377;-75
2023/08/31 03:33:43;;;;;;;71.20;67.80;;;;;;;19.93;45.60;100753.28;5032585;28;20075;-74
2023/08/31 03:36:09;;;;;;;71.05;67.70;;;;;;;19.94;45.66;100754.13;5045046;28;20060;-74
2023/08/31 03:38:37;;;;;;;71.35;68.10;;;;;;;19.91;45.59;100755.53;5044122;28;20049;-73
2023/08/31 03:41:03;;;;;;;;;;;;;;;19.85;45.81;100760.28;5042096;28;20057;-73
2023/08/31 03:43:29;;;;;;;70.75;67.13;;;;;;;19.85;45.65;100751.28;5041455;28;20007;-73
2023/08/31 03:45:58;;;;;;;69.70;66.40;;;;;;;19.84;45.48;100752.41;5040721;28;20480;-73
2023/08/31 03:48:24;;;;;;;69.22;65.88;;;;;;;19.83;45.72;100748.84;5042197;28;20037;-74
2023/08/31 03:50:53;;;;;;;70.75;67.25;;;;;;;19.83;45.78;100750.75;5046128;28;20041;-74
2023/08/31 03:53:19;;;;;;;70.93;67.63;;;;;;;19.81;45.97;100751.06;5052468;28;20385;-73
2023/08/31 03:55:45;;;;;;;71.10;67.55;;;;;;;19.82;45.70;100754.63;5049262;28;20033;-73
2023/08/31 03:58:10;;;;;;;69.40;66.10;;;;;;;19.79;46.05;100756.03;5049537;28;20091;-73
2023/08/31 04:00:37;;;;;;;69.18;65.85;;;;;;;19.79;45.77;100753.31;5057645;28;20040;-74
2023/08/31 04:03:04;;;;;;;71.15;67.80;;;;;;;19.79;46.13;100755.25;5042631;28;20132;-73
2023/08/31 04:05:32;;;;;;;70.53;67.07;;;;;;;19.78;45.68;100757.19;5042262;28;20029;-73
2023/08/31 04:07:58;;;;;;;;;;;;;;;19.72;45.67;100754.81;5045175;28;20036;-75
2023/08/31 04:10:25;;;;;;;65.72;62.58;;;;;;;19.73;45.66;100756.44;5039988;28;20357;-73
2023/08/31 04:12:50;;;;;;;70.28;66.88;;;;;;;19.71;45.54;100747.72;5052225;28;20131;-73
2023/08/31 04:15:16;;;;;;;67.35;64.25;;;;;;;19.69;45.85;100761.72;5049037;28;20443;-73
2023/08/31 04:17:41;;;;;;;69.90;66.47;;;;;;;19.68;46.09;100760.13;5047484;28;20082;-72
2023/08/31 04:20:08;;;;;;;70.32;67.13;;;;;;;19.67;45.82;100764.75;5036222;28;20087;-74
2023/08/31 04:22:33;;;;;;;69.07;65.63;;;;;;;19.66;46.09;100770.53;5040928;28;20477;-73
2023/08/31 04:24:59;;;;;;;66.15;63.05;;;;;;;19.65;46.04;100771.63;5043274;28;20045;-72
2023/08/31 04:27:24;;;;;;;66.85;63.65;;;;;;;19.65;45.90;100777.09;5039175;28;20389;-74
2023/08/31 04:29:50;;;;;;;69.85;66.45;;;;;;;19.62;45.86;100767.56;5049698;28;20124;-73
2023/08/31 04:32:15;;;;;;;69.57;66.38;;;;;;;19.62;46.08;100770.31;5047272;28;20432;-73
2023/08/31 04:34:40;;;;;;;67.95;64.72;;;;;;;19.61;46.13;100774.16;5033666;28;20072;-73
2023/08/31 04:37:06;;;;;;;68.75;64.95;;;;;;;19.60;46.05;100779.94;5065363;28;20045;-73
2023/08/31 04:39:31;;;;;;;70.55;67.25;;;;;;;19.59;45.93;100778.34;5046997;28;20043;-73
2023/08/31 04:41:56;;;;;;;68.47;65.28;;;;;;;19.57;45.60;100775.88;5046668;28;20505;-73
2023/08/31 04:44:22;;;;;;;65.93;62.85;;;;;;;19.55;46.10;100780.84;5041750;28;20513;-74
2023/08/31 04:46:47;;;;;;;67.85;64.45;;;;;;;19.56;45.76;100784.41;5040580;28;20072;-73
2023/08/31 04:49:13;;;;;;;66.50;63.22;;;;;;;19.54;45.59;100779.22;5044228;28;20477;-74
2023/08/31 04:51:39;;;;;;;64.95;61.85;;;;;;;19.53;45.83;100794.06;5045652;28;20061;-72
2023/08/31 04:54:05;;;;;;;66.00;62.90;;;;;;;19.52;45.70;100789.66;5065903;28;20052;-73
2023/08/31 04:56:33;;;;;;;67.00;63.60;;;;;;;19.51;46.15;100784.50;5061590;28;20114;-73
2023/08/31 04:58:59;;;;;;;;;;;;;;;19.45;46.17;100789.25;5049462;28;20053;-73
2023/08/31 05:01:24;;;;;;;65.90;62.60;;;;;;;19.46;45.83;100796.38;5051348;28;19967;-73
2023/08/31 05:03:50;;;;;;;67.82;64.60;;;;;;;19.44;45.81;100801.34;5054989;28;20452;-73
2023/08/31 05:06:15;;;;;;;64.82;61.72;;;;;;;19.43;45.99;100797.78;5049589;28;20040;-72
2023/08/31 05:08:41;;;;;;;67.28;63.88;;;;;;;19.42;45.66;100798.88;5040968;28;20124;-73
2023/08/31 05:11:06;;;;;;;65.85;62.63;;;;;;;19.42;46.19;100800.81;5039706;28;20613;-72
2023/08/31 05:13:32;;;;;;;64.05;60.85;;;;;;;19.40;45.68;100801.13;5043930;28;20045;-72
2023/08/31 05:15:57;;;;;;;66.63;63.47;;;;;;;19.39;45.73;100807.72;5052732;28;20025;-72
2023/08/31 05:18:22;;;;;;;67.38;63.97;;;;;;;19.39;45.91;100815.13;5047492;28;20028;-72
2023/08/31 05:20:48;;;;;;;66.22;62.95;;;;;;;19.37;46.08;100804.44;5053139;28;20033;-72
2023/08/31 05:23:14;;;;;;;66.63;63.42;;;;;;;19.37;45.81;100820.06;5032471;28;20474;-72
2023/08/31 05:25:44;;;;;;;65.47;62.38;;;;;;;19.35;46.13;100812.19;5052789;28;20040;-73
2023/08/31 05:28:09;;;;;;;64.28;61.22;;;;;;;19.34;45.78;100815.22;5068021;28;20045;-72
2023/08/31 05:30:35;;;;;;;66.43;63.15;;;;;;;19.33;45.94;100824.53;5052468;28;20510;-72
2023/08/31 05:33:03;;;;;;;67.82;64.50;;;;;;;19.32;45.68;100823.72;5037975;28;20561;-73
2023/08/31 05:35:29;;;;;;;67.15;63.95;;;;;;;19.31;46.12;100827.56;5044220;28;20100;-72
2023/08/31 05:37:55;;;;;;;66.88;63.42;;;;;;;19.30;46.29;100825.13;5047880;28;20477;-72
2023/08/31 05:40:21;;;;;;;65.47;62.28;;;;;;;19.29;45.78;100823.50;5053818;28;20055;-73
2023/08/31 05:42:47;;;;;;;67.07;63.55;;;;;;;19.27;45.78;100826.53;5049769;28;20447;-73
2023/08/31 05:45:12;;;;;;;65.53;62.28;;;;;;;19.26;45.99;100830.41;5046470;28;20098;-73
2023/08/31 05:47:40;;;;;;;65.57;62.42;;;;;;;19.26;45.74;100832.34;5038853;28;20055;-74
2023/08/31 05:50:06;;;;;;;65.57;62.42;;;;;;;19.25;45.76;100839.72;5052465;28;20484;-73
2023/08/31 05:52:31;;;;;;;67.32;64.10;;;;;;;19.24;46.15;100841.63;5038129;28;20112;-73
2023/08/31 05:54:57;;;;;;;64.18;61.08;;;;;;;19.22;46.24;100841.13;5043237;28;20029;-73
2023/08/31 05:57:22;;;;;;;65.10;62.00;;;;;;;19.21;46.29;100847.72;5044324;28;20705;-73
2023/08/31 05:59:48;;;;;;;65.05;61.85;;;;;;;19.19;45.90;100841.72;5054278;28;20067;-73
2023/08/31 06:02:14;;;;;;;65.43;61.95;;;;;;;19.20;46.17;100848.00;5048065;28;20029;-72
2023/08/31 06:04:39;;;;;;;64.78;61.67;;;;;;;19.18;45.93;100844.78;5042127;28;20045;-74
2023/08/31 06:07:05;;;;;;;69.10;65.80;;;;;;;19.17;46.48;100851.34;5050918;28;20040;-73
2023/08/31 06:09:30;;;;;;;67.32;64.05;;;;;;;19.16;45.99;100850.53;5035609;28;20041;-73
2023/08/31 06:11:55;;;;;;;66.47;63.03;;;;;;;19.16;46.04;100857.94;5051398;28;20457;-73
2023/08/31 06:14:21;;;;;;;61.40;58.50;;;;;;;19.15;46.46;100859.03;5038053;28;20160;-72
2023/08/31 06:16:46;;;;;;;65.22;62.22;;;;;;;19.14;46.00;100860.97;5052687;28;20065;-72
2023/08/31 06:19:15;;;;;;;64.57;61.47;;;;;;;19.14;46.42;100860.16;5058470;28;20374;-74
2023/08/31 06:21:41;;;;;;;62.80;59.80;;;;;;;19.12;46.37;100863.19;5048465;28;20052;-71
2023/08/31 06:24:09;;;;;;;66.95;63.55;;;;;;;19.12;46.33;100867.84;5046822;28;20033;-72
2023/08/31 06:26:35;;;;;;;;;;;;;;;19.07;46.41;100863.25;5048585;28;20040;-72
2023/08/31 06:29:00;;;;;;;62.78;59.47;;;;;;;19.08;46.48;100873.13;5039825;28;19921;-72
2023/08/31 06:31:25;;;;;;;62.72;59.63;;;;;;;19.07;46.40;100874.22;5044401;28;20362;-72
2023/08/31 06:33:51;;;;;;;63.90;60.85;;;;;;;19.07;46.37;100871.47;5044121;28;20033;-71
2023/08/31 06:36:16;;;;;;;60.80;57.72;;;;;;;19.07;46.30;100876.94;5052255;28;20122;-72
2023/08/31 06:38:41;;;;;;;62.35;59.15;;;;;;;19.07;46.18;100876.16;5035789;28;20037;-72
2023/08/31 06:41:08;;;;;;;66.22;63.03;;;;;;;19.07;46.37;100878.88;5050735;28;20473;-73
2023/08/31 06:43:34;;;;;;;64.75;61.25;;;;;;;19.06;46.39;100875.34;5047529;28;20045;-72
2023/08/31 06:45:59;;;;;;;63.72;60.53;;;;;;;19.06;46.44;100871.78;5041590;28;20402;-72
2023/08/31 06:48:25;;;;;;;64.75;61.47;;;;;;;19.06;46.23;100878.06;5042929;28;20064;-72
2023/08/31 06:50:50;;;;;;;64.10;60.80;;;;;;;19.06;46.28;100869.06;5048015;28;20470;-73
2023/08/31 06:53:15;;;;;;;62.42;59.53;;;;;;;19.07;46.71;100884.34;5049285;28;20045;-73
2023/08/31 06:55:41;;;;;;;63.30;60.40;;;;;;;19.06;46.30;100880.00;5043817;28;20099;-72
2023/08/31 06:58:06;;;;;;;64.85;61.75;;;;;;;19.07;46.34;100884.34;5041170;28;20033;-73
2023/08/31 07:00:34;;;;;;;63.95;60.63;;;;;;;19.06;46.51;100894.50;5047800;28;20461;-72
2023/08/31 07:03:00;;;;;;;64.85;61.58;;;;;;;19.06;46.11;100894.50;5038547;28;20037;-73
2023/08/31 07:05:26;;;;;;;63.28;60.28;;;;;;;19.06;46.35;100897.25;5052107;28;20091;-73
2023/08/31 07:07:55;;;;;;;62.42;59.42;;;;;;;19.07;46.68;100898.84;5052786;28;20505;-72
2023/08/31 07:10:21;;;;;;;;;;;;;;;19.00;46.48;100893.75;5044850;28;20068;-73
2023/08/31 07:12:46;;;;;;;60.38;57.47;;;;;;;19.02;46.50;100902.50;5036861;28;19948;-71
2023/08/31 07:15:12;;;;;;;62.72;59.58;;;;;;;19.03;46.81;100906.06;5034017;28;20034;-72
2023/08/31 07:17:37;;;;;;;61.53;58.55;;;;;;;19.02;46.70;100902.50;5052698;28;20043;-72
2023/08/31 07:20:05;;;;;;;63.03;59.95;;;;;;;19.02;46.63;100907.97;5045885;28;20543;-72
2023/08/31 07:22:32;;;;;;;62.97;59.97;;;;;;;19.02;46.50;100905.25;5050573;28;20063;-72
2023/08/31 07:24:58;;;;;;;63.35;60.42;;;;;;;19.03;47.13;100911.53;5039392;28;20040;-73
2023/08/31 07:27:23;;;;;;;62.90;59.67;;;;;;;19.02;46.75;100918.94;5043098;28;20036;-72
2023/08/31 07:29:48;;;;;;;62.58;59.50;;;;;;;19.01;47.18;100905.53;5045916;28;20060;-72
2023/08/31 07:32:14;;;;;;;63.35;60.25;;;;;;;19.02;47.07;100912.63;5047734;28;20063;-72
2023/08/31 07:34:39;;;;;;;63.55;60.47;;;;;;;19.02;47.25;100910.72;5048401;28;20531;-71
2023/08/31 07:37:06;;;;;;;62.63;59.65;;;;;;;19.03;47.29;100906.84;5039444;28;20155;-71
2023/08/31 07:39:31;;;;;;;60.47;57.47;;;;;;;19.06;47.04;100910.13;5054721;28;20037;-71
2023/08/31 07:41:57;;;;;;;63.17;59.47;;;;;;;19.07;47.27;100909.00;5046426;28;20063;-73
2023/08/31 07:44:23;;;;;;;63.67;60.42;;;;;;;19.09;47.27;100904.03;5036113;28;20033;-72
2023/08/31 07:46:49;;;;;;;64.32;61.03;;;;;;;19.12;47.24;100906.19;5037258;28;20087;-72
2023/08/31 07:49:14;;;;;;;65.00;61.67;;;;;;;19.14;47.69;100912.19;5045980;28;20440;-73
2023/08/31 07:51:39;;;;;;;61.45;58.47;;;;;;;19.17;47.19;100903.38;5040587;28;20439;-72
2023/08/31 07:54:05;;;;;;;63.85;60.75;;;;;;;19.20;47.40;100908.25;5041587;28;20041;-72
2023/08/31 07:56:30;;;;;;;62.92;59.90;;;;;;;19.24;47.60;100912.84;5039948;28;20393;-75
2023/08/31 07:58:56;;;;;;;63.65;60.60;;;;;;;19.30;47.37;100913.56;5044696;28;20127;-72
2023/08/31 08:01:21;;;;;;;63.22;59.70;;;;;;;19.35;47.76;100920.91;5038843;28;20036;-72
2023/08/31 08:03:46;;;;;;;65.07;61.58;;;;;;;19.40;47.50;100924.41;5032889;28;20228;-74
2023/08/31 08:06:12;;;;;;;64.30;60.67;;;;;;;19.44;47.51;100919.94;5039042;28;20047;-72
2023/08/31 08:08:37;;;;;;;61.05;58.15;;;;;;;19.49;47.33;100926.47;5050516;28;20048;-72
2023/08/31 08:11:04;;;;;;;65.22;61.72;;;;;;;19.54;47.57;100929.91;5048038;28;20417;-72
2023/08/31 08:13:30;;;;;;;63.25;60.25;;;;;;;19.58;47.87;100928.22;5035883;28;20037;-72
2023/08/31 08:15:55;;;;;;;63.63;60.47;;;;;;;19.62;47.90;100925.69;5043282;28;20288;-72
2023/08/31 08:18:21;;;;;;;65.93;62.42;;;;;;;19.66;47.89;100932.22;5038734;28;20041;-73
2023/08/31 08:20:53;;;;;;;64.95;61.45;;;;;;;19.71;48.09;100936.84;5036170;28;20045;-71
2023/08/31 08:23:19;;;;;;;65.95;62.60;;;;;;;19.75;48.05;100930.44;5044651;28;20061;-71
2023/08/31 08:25:44;;;;;;;65.28;62.17;;;;;;;19.81;47.78;100933.91;5047253;28;20095;-72
2023/08/31 08:28:10;;;;;;;64.55;61.35;;;;;;;19.85;48.29;100933.00;5038432;28;20432;-72
2023/08/31 08:30:35;;;;;;;66.03;62.92;;;;;;;19.91;47.94;100938.38;5036350;28;20083;-72
2023/08/31 08:33:00;;;;;;;64.43;61.33;;;;;;;19.96;48.20;100941.03;5046146;28;20029;-71
2023/08/31 08:35:26;;;;;;;64.82;61.72;;;;;;;20.00;47.89;100942.88;5048964;28;20207;-71
2023/08/31 08:37:52;;;;;;;66.72;63.25;;;;;;;20.04;48.24;100941.19;5038045;28;20080;-72
2023/08/31 08:40:18;;;;;;;68.43;64.97;;;;;;;20.09;48.07;100946.56;5036980;28;20052;-71
2023/08/31 08:42:47;;;;;;;68.20;64.82;;;;;;;20.16;48.55;100945.34;5033958;28;20061;-72
2023/08/31 08:45:15;;;;;;;66.75;63.60;;;;;;;20.23;48.56;100949.31;5042352;28;20067;-72
2023/08/31 08:47:43;;;;;;;68.10;64.80;;;;;;;20.28;48.50;100946.47;5037569;28;20033;-71
2023/08/31 08:50:10;;;;;;;69.93;66.32;;;;;;;20.33;48.37;100948.31;5041560;28;20115;-72
2023/08/31 08:52:35;;;;;;;69.25;65.95;;;;;;;20.40;48.81;100951.47;5035835;28;20034;-72
2023/08/31 08:55:01;;;;;;;70.50;67.03;;;;;;;20.46;48.73;100958.50;5040983;28;20097;-70
2023/08/31 08:57:26;;;;;;;72.75;69.25;;;;;;;20.53;48.28;100958.09;5037632;28;20079;-73
2023/08/31 08:59:52;;;;;;;68.68;65.47;;;;;;;20.58;48.63;100955.28;5042755;28;20346;-73
2023/08/31 09:02:17;;;;;;;73.57;69.90;;;;;;;20.63;48.83;100968.91;5040034;28;20050;-71
2023/08/31 09:04:43;;;;;;;72.13;68.75;;;;;;;20.68;48.39;100963.31;5034605;28;20065;-71
2023/08/31 09:07:08;;;;;;;71.82;68.53;;;;;;;20.75;48.57;100960.97;5031159;28;20041;-71
2023/08/31 09:09:49;;;;;;;72.35;68.95;;;;;;;20.80;48.97;100962.81;5036191;28;20040;-74
2023/08/31 09:12:14;;;;;;;75.80;71.78;;;;;;;20.87;48.95;100965.94;5042197;28;20041;-71
2023/08/31 09:14:40;;;;;;;73.93;69.97;;;;;;;20.92;48.64;100970.53;5032248;28;20040;-73
2023/08/31 09:17:06;;;;;;;74.63;70.72;;;;;;;20.98;48.90;100965.72;5044797;28;20041;-71
2023/08/31 09:19:31;;;;;;;76.32;72.72;;;;;;;21.02;48.97;100967.56;5037383;28;20401;-71
2023/08/31 09:21:57;;;;;;;74.32;70.88;;;;;;;21.07;48.53;100970.19;5042130;28;20384;-71
2023/08/31 09:24:23;;;;;;;76.22;72.72;;;;;;;21.12;48.88;100975.59;5037380;28;20496;-72
2023/08/31 09:26:55;;;;;;;77.55;73.90;;;;;;;21.18;49.10;100976.28;5048937;28;21250;-72
2023/08/31 09:29:20;;;;;;;78.63;74.72;;;;;;;21.23;49.01;100975.34;5033454;28;20029;-73
2023/08/31 09:31:47;;;;;;;77.82;74.03;;;;;;;21.27;49.18;100979.09;5043337;28;20036;-71
2023/08/31 09:34:16;;;;;;;75.75;72.15;;;;;;;21.32;49.13;100973.50;5042852;28;20040;-73
2023/08/31 09:36:43;;;;;;;75.15;71.55;;;;;;;21.35;49.16;100970.94;5044500;28;20044;-72
2023/08/31 09:39:09;;;;;;;75.15;71.35;;;;;;;21.39;49.02;100968.41;5033833;28;20049;-72
2023/08/31 09:41:35;;;;;;;80.55;76.65;;;;;;;21.45;48.73;100971.88;5042714;28;20454;-72
2023/08/31 09:44:18;;;;;;;80.28;75.68;;;;;;;21.48;49.17;100974.81;5030793;28;20033;-73
2023/08/31 09:46:44;;;;;;;79.05;75.35;;;;;;;21.52;49.15;100975.81;5033372;28;20030;-73
2023/08/31 09:49:13;;;;;;;78.35;74.65;;;;;;;21.57;48.86;100972.94;5037768;28;20129;-71
2023/08/31 09:51:43;;;;;;;77.35;73.85;;;;;;;21.61;48.92;100973.13;5038289;28;20038;-71
2023/08/31 09:54:12;;;;;;;79.25;75.55;;;;;;;21.67;49.31;100968.31;5049078;28;20041;-71
2023/08/31 09:56:41;;;;;;;81.22;77.22;;;;;;;21.70;49.39;100974.00;5034707;28;20260;-71
2023/08/31 09:59:07;;;;;;;80.95;77.15;;;;;;;21.74;49.29;100976.94;5046506;28;20469;-71
2023/08/31 10:01:33;;;;;;;80.40;76.50;;;;;;;21.76;49.40;100970.00;5041879;28;20086;-71
2023/08/31 10:04:00;;;;;;;80.60;76.85;;;;;;;21.82;49.30;100973.44;5052076;28;20036;-70
2023/08/31 10:06:27;;;;;;;80.43;76.57;;;;;;;21.85;49.35;100978.31;5044338;28;20483;-73
2023/08/31 10:08:53;;;;;;;81.55;77.65;;;;;;;21.89;49.45;100973.81;5044479;28;20040;-71
2023/08/31 10:11:19;;;;;;;82.22;78.43;;;;;;;21.93;49.33;100974.00;5044272;28;20041;-71
2023/08/31 10:13:47;;;;;;;82.20;78.47;;;;;;;21.95;48.93;100969.81;5042189;28;20033;-72
2023/08/31 10:16:13;;;;;;;81.18;77.32;;;;;;;21.98;48.87;100969.19;5034492;28;20033;-72
2023/08/31 10:18:38;;;;;;;80.75;76.97;;;;;;;22.02;49.27;100972.94;5041593;28;20311;-71
2023/08/31 10:21:04;;;;;;;80.65;77.00;;;;;;;22.06;48.89;100964.06;5038958;28;20116;-71
2023/08/31 10:23:30;;;;;;;86.78;82.45;;;;;;;22.09;49.27;100963.41;5048050;28;20033;-71
2023/08/31 10:25:55;;;;;;;87.82;83.15;;;;;;;22.11;49.02;100964.72;5039695;28;20029;-71
2023/08/31 10:28:25;;;;;;;84.38;80.45;;;;;;;22.15;49.42;100959.41;5034701;28;20033;-71
2023/08/31 10:31:16;;;;;;;84.45;80.45;;;;;;;22.18;49.31;100959.59;5042543;28;20144;-71
2023/08/31 10:33:45;;;;;;;84.07;80.18;;;;;;;22.21;49.13;100955.44;5049525;28;20033;-71
2023/08/31 10:36:18;;;;;;;82.95;79.15;;;;;;;22.24;48.78;100957.53;5052400;28;20028;-71
2023/08/31 10:39:00;;;;;;;84.25;80.40;;;;;;;22.26;49.39;100963.53;5048623;28;20429;-71
2023/08/31 10:41:33;;;;;;;85.38;81.35;;;;;;;22.30;48.76;100960.97;5048579;28;20445;-70
2023/08/31 10:43:59;;;;;;;85.90;82.00;;;;;;;22.31;49.28;100966.16;5049042;28;20127;-70
2023/08/31 10:46:28;;;;;;;85.50;81.30;;;;;;;22.35;49.32;100960.81;5041089;28;20456;-72
2023/08/31 10:48:56;;;;;;;82.95;79.25;;;;;;;22.38;48.80;100957.47;5045269;28;20594;-70
2023/08/31 10:51:23;;;;;;;86.85;82.75;;;;;;;22.41;49.01;100962.31;5052814;28;20060;-69
2023/08/31 10:53:49;;;;;;;84.07;80.22;;;;;;;22.43;49.18;100951.81;5046430;28;20074;-70
2023/08/31 10:56:18;;;;;;;85.13;81.10;;;;;;;22.46;49.05;100953.91;5043693;28;20037;-71
2023/08/31 10:59:04;;;;;;;87.43;83.32;;;;;;;22.46;49.27;100953.91;5040522;28;20549;-71
2023/08/31 11:01:51;;;;;;;88.85;84.72;;;;;;;22.49;49.19;100953.28;5039965;28;20076;-70
2023/08/31 11:04:16;;;;;;;88.38;84.28;;;;;;;22.52;49.21;100949.88;5043829;28;20037;-70
2023/08/31 11:06:42;;;;;;;87.93;83.93;;;;;;;22.53;48.93;100948.78;5048451;28;20044;-70
2023/08/31 11:09:23;;;;;;;88.53;84.47;;;;;;;22.57;48.77;100946.19;5033089;28;20043;-70
2023/08/31 11:11:48;;;;;;;85.30;81.50;;;;;;;22.59;48.74;100947.47;5034817;28;20045;-70